createdAt,value
2022-11-05T00:01:12.848Z,54.27
2022-11-05T00:04:00.054Z,54.02
2022-11-05T00:06:45.478Z,54.19
2022-11-05T00:09:31.342Z,54.21
2022-11-05T00:12:18.360Z,54.02
2022-11-05T00:15:05.988Z,54.01
2022-11-05T00:17:34.700Z,54.15
2022-11-05T00:20:04.832Z,54.31
2022-11-05T00:22:50.256Z,54.30
2022-11-05T00:25:19.101Z,54.25
2022-11-05T00:27:51.331Z,54.22
2022-11-05T00:30:21.504Z,54.27
2022-11-05T00:32:51.292Z,54.25
2022-11-05T00:35:22.809Z,54.29
2022-11-05T00:37:50.857Z,54.12
2022-11-05T00:40:19.179Z,54.20
2022-11-05T00:43:04.803Z,54.05
2022-11-05T00:45:33.316Z,53.99
2022-11-05T00:48:18.480Z,54.06
2022-11-05T00:50:47.860Z,53.93
2022-11-05T00:53:15.803Z,53.96
2022-11-05T00:55:45.287Z,53.98
2022-11-05T00:58:15.234Z,54.07
2022-11-05T01:00:45.030Z,54.05
2022-11-05T01:03:15.498Z,53.89
2022-11-05T01:05:45.301Z,54.09
2022-11-05T01:08:16.276Z,53.96
2022-11-05T01:10:45.706Z,54.01
2022-11-05T01:13:15.173Z,54.00
2022-11-05T01:15:43.669Z,53.89
2022-11-05T01:18:12.151Z,53.91
2022-11-05T01:20:40.177Z,53.90
2022-11-05T01:23:13.266Z,54.01
2022-11-05T01:25:43.009Z,53.94
2022-11-05T01:28:11.449Z,53.95
2022-11-05T01:30:39.862Z,53.97
2022-11-05T01:33:08.196Z,53.87
2022-11-05T01:35:36.334Z,53.78
2022-11-05T01:38:04.399Z,53.79
2022-11-05T01:40:32.543Z,53.85
2022-11-05T01:43:01.852Z,53.62
2022-11-05T01:45:30.362Z,53.85
2022-11-05T01:48:10.337Z,53.55
2022-11-05T01:50:43.576Z,53.84
2022-11-05T01:53:16.972Z,53.85
2022-11-05T01:55:49.185Z,53.62
2022-11-05T01:58:22.677Z,53.93
2022-11-05T02:00:50.933Z,53.88
2022-11-05T02:03:20.403Z,53.94
2022-11-05T02:05:51.505Z,53.77
2022-11-05T02:08:27.276Z,53.90
2022-11-05T02:10:55.501Z,53.80
2022-11-05T02:13:24.891Z,53.68
2022-11-05T02:16:02.528Z,53.71
2022-11-05T02:18:42.357Z,53.66
2022-11-05T02:21:35.187Z,53.54
2022-11-05T02:24:31.616Z,53.45
2022-11-05T02:27:12.874Z,53.62
2022-11-05T02:30:13.546Z,53.42
2022-11-05T02:33:07.936Z,53.34
2022-11-05T02:35:54.997Z,53.43
2022-11-05T02:38:36.408Z,53.44
2022-11-05T02:41:09.850Z,53.31
2022-11-05T02:43:46.765Z,53.69
2022-11-05T02:46:26.893Z,53.59
2022-11-05T02:49:01.322Z,53.58
2022-11-05T02:51:36.425Z,53.56
2022-11-05T02:54:14.499Z,53.86
2022-11-05T02:56:46.485Z,53.91
2022-11-05T02:59:15.231Z,53.81
2022-11-05T03:01:45.104Z,53.72
2022-11-05T03:04:17.730Z,53.80
2022-11-05T03:07:08.553Z,53.63
2022-11-05T03:09:51.775Z,53.57
2022-11-05T03:12:28.203Z,53.81
2022-11-05T03:15:05.271Z,53.67
2022-11-05T03:17:40.628Z,53.60
2022-11-05T03:20:19.156Z,53.65
2022-11-05T03:22:52.855Z,53.58
2022-11-05T03:25:23.975Z,53.59
2022-11-05T03:27:58.540Z,53.60
2022-11-05T03:30:27.221Z,53.56
2022-11-05T03:33:01.946Z,53.71
2022-11-05T03:35:37.311Z,53.54
2022-11-05T03:38:09.249Z,53.64
2022-11-05T03:40:39.975Z,53.80
2022-11-05T03:43:09.826Z,53.68
2022-11-05T03:45:42.969Z,53.82
2022-11-05T03:48:13.849Z,53.52
2022-11-05T03:50:50.675Z,53.79
2022-11-05T03:53:23.676Z,53.81
2022-11-05T03:55:59.480Z,53.70
2022-11-05T03:58:28.365Z,53.78
2022-11-05T04:00:56.409Z,53.53
2022-11-05T04:03:24.419Z,53.80
2022-11-05T04:06:12.293Z,53.70
2022-11-05T04:08:59.015Z,53.86
2022-11-05T04:11:44.199Z,53.68
2022-11-05T04:14:12.144Z,53.68
2022-11-05T04:16:57.626Z,53.84
2022-11-05T04:19:39.406Z,53.76
2022-11-05T04:22:40.789Z,53.83
2022-11-05T04:25:09.849Z,53.71
2022-11-05T04:27:38.048Z,53.63
2022-11-05T04:30:21.869Z,53.61
2022-11-05T04:33:01.097Z,53.23
2022-11-05T04:35:30.320Z,53.82
2022-11-05T04:37:59.669Z,53.77
2022-11-05T04:40:29.114Z,53.61
2022-11-05T04:42:57.428Z,53.66
2022-11-05T04:45:26.116Z,53.57
2022-11-05T04:47:54.109Z,53.55
2022-11-05T04:50:22.447Z,53.75
2022-11-05T04:52:50.431Z,53.59
2022-11-05T04:55:20.099Z,53.70
2022-11-05T04:57:49.269Z,53.59
2022-11-05T05:00:18.416Z,53.80
2022-11-05T05:02:46.403Z,53.71
2022-11-05T05:05:15.227Z,53.56
2022-11-05T05:07:43.618Z,53.88
2022-11-05T05:10:12.422Z,53.77
2022-11-05T05:12:41.826Z,53.76
2022-11-05T05:15:10.067Z,53.66
2022-11-05T05:17:38.051Z,53.88
2022-11-05T05:20:23.747Z,53.65
2022-11-05T05:22:55.385Z,53.76
2022-11-05T05:25:24.291Z,53.66
2022-11-05T05:27:53.718Z,53.79
2022-11-05T05:30:21.679Z,53.61
2022-11-05T05:32:50.133Z,53.65
2022-11-05T05:35:18.482Z,53.74
2022-11-05T05:37:46.654Z,53.57
2022-11-05T05:40:14.615Z,53.67
2022-11-05T05:42:43.600Z,53.74
2022-11-05T05:45:13.612Z,53.57
2022-11-05T05:47:41.503Z,53.58
2022-11-05T05:50:09.650Z,53.55
2022-11-05T05:52:37.619Z,53.68
2022-11-05T05:55:06.224Z,53.71
2022-11-05T05:57:35.230Z,53.81
2022-11-05T06:00:03.425Z,53.62
2022-11-05T06:02:33.387Z,53.62
2022-11-05T06:05:01.553Z,53.80
2022-11-05T06:07:33.132Z,53.76
2022-11-05T06:10:06.483Z,53.53
2022-11-05T06:12:34.533Z,53.67
2022-11-05T06:15:02.528Z,53.61
2022-11-05T06:17:30.466Z,53.53
2022-11-05T06:19:59.806Z,53.82
2022-11-05T06:22:27.755Z,53.59
2022-11-05T06:24:55.676Z,53.56
2022-11-05T06:27:23.631Z,53.75
2022-11-05T06:29:51.567Z,53.64
2022-11-05T06:32:19.474Z,53.63
2022-11-05T06:34:47.430Z,53.64
2022-11-05T06:37:16.752Z,53.67
2022-11-05T06:39:44.719Z,53.57
2022-11-05T06:42:18.228Z,53.48
2022-11-05T06:44:46.636Z,53.52
2022-11-05T06:47:14.587Z,53.68
2022-11-05T06:49:42.535Z,53.60
2022-11-05T06:52:10.470Z,53.56
2022-11-05T06:54:39.944Z,53.52
2022-11-05T06:57:09.670Z,53.66
2022-11-05T06:59:37.771Z,53.48
2022-11-05T07:02:06.323Z,53.66
2022-11-05T07:04:34.825Z,53.75
2022-11-05T07:07:03.261Z,53.58
2022-11-05T07:09:31.187Z,53.54
2022-11-05T07:12:00.512Z,53.49
2022-11-05T07:14:28.460Z,53.58
2022-11-05T07:16:58.125Z,53.71
2022-11-05T07:19:26.048Z,53.72
2022-11-05T07:21:53.985Z,53.44
2022-11-05T07:24:21.883Z,53.67
2022-11-05T07:26:49.865Z,53.48
2022-11-05T07:29:19.175Z,53.55
2022-11-05T07:31:47.628Z,53.59
2022-11-05T07:34:15.616Z,53.54
2022-11-05T07:36:43.617Z,53.46
2022-11-05T07:39:11.578Z,53.39
2022-11-05T07:41:39.511Z,53.63
2022-11-05T07:44:07.561Z,53.66
2022-11-05T07:46:36.850Z,53.64
2022-11-05T07:49:05.182Z,53.62
2022-11-05T07:51:33.158Z,53.44
2022-11-05T07:54:01.467Z,53.53
2022-11-05T07:56:29.462Z,53.33
2022-11-05T07:58:57.454Z,53.50
2022-11-05T08:01:25.816Z,53.56
2022-11-05T08:03:55.339Z,53.65
2022-11-05T08:06:23.361Z,53.37
2022-11-05T08:08:51.403Z,53.51
2022-11-05T08:11:20.035Z,53.45
2022-11-05T08:13:48.011Z,53.43
2022-11-05T08:16:15.947Z,53.38
2022-11-05T08:18:44.706Z,53.69
2022-11-05T08:21:14.194Z,53.63
2022-11-05T08:23:43.033Z,53.55
2022-11-05T08:26:11.621Z,53.34
2022-11-05T08:28:39.584Z,53.38
2022-11-05T08:31:07.572Z,53.48
2022-11-05T08:33:35.566Z,53.35
2022-11-05T08:36:04.470Z,53.29
2022-11-05T08:38:33.798Z,53.51
2022-11-05T08:41:01.781Z,53.53
2022-11-05T08:43:29.796Z,53.32
2022-11-05T08:45:57.845Z,53.35
2022-11-05T08:48:25.831Z,53.48
2022-11-05T08:50:53.740Z,53.52
2022-11-05T08:53:21.779Z,53.32
2022-11-05T08:55:51.650Z,53.42
2022-11-05T08:58:20.854Z,53.43
2022-11-05T09:00:50.638Z,53.31
2022-11-05T09:03:18.807Z,53.50
2022-11-05T09:05:46.804Z,53.45
2022-11-05T09:08:16.820Z,53.45
2022-11-05T09:10:45.461Z,53.33
2022-11-05T09:13:18.951Z,53.41
2022-11-05T09:15:48.698Z,53.25
2022-11-05T09:18:18.130Z,53.32
2022-11-05T09:20:46.498Z,53.65
2022-11-05T09:23:15.914Z,53.32
2022-11-05T09:25:44.040Z,53.47
2022-11-05T09:28:17.137Z,53.45
2022-11-05T09:30:47.295Z,53.33
2022-11-05T09:33:16.269Z,53.44
2022-11-05T09:35:44.636Z,53.50
2022-11-05T09:38:12.915Z,53.41
2022-11-05T09:40:57.133Z,53.36
2022-11-05T09:43:31.953Z,53.40
2022-11-05T09:46:05.231Z,53.37
2022-11-05T09:48:35.265Z,53.47
2022-11-05T09:51:05.114Z,53.60
2022-11-05T09:53:33.431Z,53.52
2022-11-05T09:56:02.172Z,53.41
2022-11-05T09:58:39.016Z,53.27
2022-11-05T10:01:12.576Z,53.40
2022-11-05T10:03:46.877Z,53.29
2022-11-05T10:06:21.359Z,53.34
2022-11-05T10:08:53.688Z,53.59
2022-11-05T10:11:26.739Z,53.32
2022-11-05T10:13:59.760Z,53.41
2022-11-05T10:16:31.922Z,53.33
2022-11-05T10:19:06.540Z,53.55
2022-11-05T10:22:04.345Z,53.36
2022-11-05T10:24:23.023Z,53.50
2022-11-05T10:26:54.010Z,53.37
2022-11-05T10:29:27.269Z,53.46
2022-11-05T10:31:57.271Z,53.43
2022-11-05T10:34:28.716Z,53.54
2022-11-05T10:36:56.814Z,53.49
2022-11-05T10:39:27.770Z,53.38
2022-11-05T10:42:31.689Z,53.32
2022-11-05T10:45:07.145Z,53.45
2022-11-05T10:47:53.072Z,53.33
2022-11-05T10:50:24.540Z,53.25
2022-11-05T10:52:58.447Z,53.36
2022-11-05T10:55:29.363Z,53.61
2022-11-05T10:58:09.847Z,53.37
2022-11-05T11:00:39.372Z,53.47
2022-11-05T11:03:28.031Z,53.43
2022-11-05T11:06:01.361Z,53.58
2022-11-05T11:08:30.291Z,53.54
2022-11-05T11:11:03.417Z,53.69
2022-11-05T11:13:51.064Z,53.22
2022-11-05T11:16:23.732Z,53.46
2022-11-05T11:18:55.062Z,53.64
2022-11-05T11:21:26.378Z,53.61
2022-11-05T11:23:59.150Z,53.71
2022-11-05T11:26:29.614Z,53.29
2022-11-05T11:29:00.407Z,53.64
2022-11-05T11:31:31.801Z,53.63
2022-11-05T11:34:03.562Z,53.42
2022-11-05T11:36:37.183Z,53.56
2022-11-05T11:39:07.884Z,53.71
2022-11-05T11:41:38.841Z,53.66
2022-11-05T11:44:13.370Z,53.44
2022-11-05T11:46:42.965Z,53.66
2022-11-05T11:49:31.587Z,53.33
2022-11-05T11:52:05.320Z,53.46
2022-11-05T11:54:35.933Z,53.48
2022-11-05T11:57:04.415Z,53.50
2022-11-05T12:00:06.596Z,53.56
2022-11-05T12:02:48.347Z,53.31
2022-11-05T12:05:30.956Z,53.43
2022-11-05T12:08:09.039Z,53.71
2022-11-05T12:10:48.957Z,53.49
2022-11-05T12:13:43.103Z,53.54
2022-11-05T12:16:18.470Z,53.67
2022-11-05T12:18:53.602Z,53.65
2022-11-05T12:21:50.944Z,53.69
2022-11-05T12:24:42.123Z,53.56
2022-11-05T12:27:24.448Z,53.41
2022-11-05T12:30:00.861Z,53.68
2022-11-05T12:32:48.639Z,53.56
2022-11-05T12:35:34.527Z,53.29
2022-11-05T12:38:09.421Z,53.73
2022-11-05T12:40:48.653Z,53.42
2022-11-05T12:43:27.264Z,53.60
2022-11-05T12:46:02.845Z,53.72
2022-11-05T12:48:53.180Z,53.53
2022-11-05T12:51:35.284Z,53.59
2022-11-05T12:54:15.959Z,53.52
2022-11-05T12:56:48.092Z,53.73
2022-11-05T12:59:22.237Z,53.78
2022-11-05T13:01:54.509Z,53.58
2022-11-05T13:04:34.028Z,53.67
2022-11-05T13:07:08.942Z,53.78
2022-11-05T13:09:42.778Z,53.71
2022-11-05T13:12:14.333Z,53.81
2022-11-05T13:14:46.727Z,53.60
2022-11-05T13:17:17.736Z,53.55
2022-11-05T13:19:51.879Z,53.59
2022-11-05T13:22:34.409Z,53.72
2022-11-05T13:25:10.734Z,53.60
2022-11-05T13:27:50.042Z,53.56
2022-11-05T13:30:21.103Z,53.66
2022-11-05T13:32:54.964Z,53.60
2022-11-05T13:35:27.459Z,53.79
2022-11-05T13:38:18.063Z,53.65
2022-11-05T13:41:01.915Z,53.60
2022-11-05T13:43:44.505Z,53.49
2022-11-05T13:46:32.725Z,53.69
2022-11-05T13:49:16.608Z,53.63
2022-11-05T13:51:50.639Z,53.88
2022-11-05T13:54:58.293Z,53.47
2022-11-05T13:57:46.656Z,53.68
2022-11-05T14:00:19.468Z,53.88
2022-11-05T14:02:51.638Z,53.65
2022-11-05T14:05:30.809Z,53.72
2022-11-05T14:08:01.690Z,53.75
2022-11-05T14:10:37.688Z,53.65
2022-11-05T14:13:19.211Z,53.52
2022-11-05T14:15:58.666Z,53.67
2022-11-05T14:18:39.279Z,53.52
2022-11-05T14:21:27.981Z,53.64
2022-11-05T14:23:57.842Z,53.62
2022-11-05T14:26:28.793Z,53.45
2022-11-05T14:29:38.172Z,53.42
2022-11-05T14:32:24.845Z,53.79
2022-11-05T14:34:57.402Z,53.70
2022-11-05T14:37:28.670Z,53.76
2022-11-05T14:39:57.600Z,53.83
2022-11-05T14:42:31.758Z,53.64
2022-11-05T14:45:21.292Z,53.60
2022-11-05T14:47:56.340Z,53.83
2022-11-05T14:50:32.322Z,53.80
2022-11-05T14:53:08.035Z,53.75
2022-11-05T14:55:40.365Z,53.91
2022-11-05T14:58:28.824Z,53.75
2022-11-05T15:00:58.009Z,53.84
2022-11-05T15:03:37.687Z,53.64
2022-11-05T15:06:31.234Z,53.36
2022-11-05T15:09:24.204Z,53.70
2022-11-05T15:12:11.067Z,53.67
2022-11-05T15:14:50.294Z,53.72
2022-11-05T15:17:23.079Z,53.86
2022-11-05T15:19:52.354Z,53.62
2022-11-05T15:22:30.550Z,53.68
2022-11-05T15:24:59.429Z,53.88
2022-11-05T15:27:47.053Z,53.68
2022-11-05T15:30:22.354Z,53.77
2022-11-05T15:32:50.745Z,53.84
2022-11-05T15:35:26.926Z,53.78
2022-11-05T15:38:01.719Z,53.88
2022-11-05T15:40:32.956Z,53.89
2022-11-05T15:43:19.879Z,53.58
2022-11-05T15:46:07.288Z,53.65
2022-11-05T15:48:36.851Z,53.63
2022-11-05T15:51:05.143Z,53.56
2022-11-05T15:54:08.301Z,53.88
2022-11-05T15:56:30.055Z,53.69
2022-11-05T15:59:01.953Z,53.63
2022-11-05T16:01:34.403Z,53.94
2022-11-05T16:04:12.512Z,53.64
2022-11-05T16:06:45.817Z,53.71
2022-11-05T16:09:23.803Z,53.53
2022-11-05T16:12:12.341Z,53.78
2022-11-05T16:14:40.327Z,53.53
2022-11-05T16:17:22.840Z,53.61
2022-11-05T16:19:52.218Z,53.82
2022-11-05T16:22:20.590Z,53.78
2022-11-05T16:24:49.370Z,53.69
2022-11-05T16:27:20.010Z,53.63
2022-11-05T16:29:51.501Z,53.49
2022-11-05T16:32:29.681Z,53.62
2022-11-05T16:35:00.587Z,53.66
2022-11-05T16:37:30.996Z,53.67
2022-11-05T16:39:59.035Z,53.69
2022-11-05T16:42:40.996Z,53.37
2022-11-05T16:45:11.894Z,53.77
2022-11-05T16:47:41.221Z,53.51
2022-11-05T16:50:22.708Z,53.52
2022-11-05T16:52:50.891Z,53.66
2022-11-05T16:55:20.138Z,53.77
2022-11-05T16:57:50.892Z,53.77
2022-11-05T17:00:20.851Z,53.48
2022-11-05T17:02:50.457Z,53.51
2022-11-05T17:05:21.786Z,53.67
2022-11-05T17:07:49.924Z,53.84
2022-11-05T17:10:19.062Z,53.71
2022-11-05T17:12:47.645Z,53.75
2022-11-05T17:15:19.403Z,53.42
2022-11-05T17:17:49.715Z,53.76
2022-11-05T17:20:27.577Z,53.64
2022-11-05T17:22:55.910Z,53.44
2022-11-05T17:25:24.328Z,53.69
2022-11-05T17:27:52.357Z,53.65
2022-11-05T17:30:20.763Z,53.64
2022-11-05T17:32:50.374Z,53.45
2022-11-05T17:35:19.232Z,53.59
2022-11-05T17:37:47.136Z,53.57
2022-11-05T17:40:18.816Z,53.51
2022-11-05T17:42:47.373Z,53.50
2022-11-05T17:45:16.072Z,53.58
2022-11-05T17:47:44.142Z,53.45
2022-11-05T17:50:18.761Z,53.40
2022-11-05T17:52:46.958Z,53.62
2022-11-05T17:55:17.714Z,53.49
2022-11-05T17:57:47.101Z,53.74
2022-11-05T18:00:17.336Z,53.41
2022-11-05T18:02:46.212Z,53.63
2022-11-05T18:05:15.763Z,53.54
2022-11-05T18:07:44.394Z,53.59
2022-11-05T18:10:12.643Z,53.52
2022-11-05T18:12:41.578Z,53.54
2022-11-05T18:15:10.196Z,53.50
2022-11-05T18:17:38.335Z,53.56
2022-11-05T18:20:10.714Z,53.60
2022-11-05T18:22:43.748Z,53.49
2022-11-05T18:25:13.170Z,53.70
2022-11-05T18:27:42.034Z,53.53
2022-11-05T18:30:14.106Z,53.43
2022-11-05T18:32:42.422Z,53.67
2022-11-05T18:35:10.777Z,53.51
2022-11-05T18:37:39.752Z,53.53
2022-11-05T18:40:10.244Z,53.58
2022-11-05T18:42:38.271Z,53.50
2022-11-05T18:45:07.320Z,53.43
2022-11-05T18:47:35.468Z,53.32
2022-11-05T18:50:04.212Z,53.26
2022-11-05T18:52:33.817Z,53.27
2022-11-05T18:55:01.770Z,53.37
2022-11-05T18:57:31.197Z,53.25
2022-11-05T18:59:59.141Z,53.24
2022-11-05T19:02:27.234Z,53.42
2022-11-05T19:05:26.960Z,53.29
2022-11-05T19:07:43.219Z,53.45
2022-11-05T19:10:11.212Z,53.25
2022-11-05T19:12:40.595Z,53.22
2022-11-05T19:15:09.715Z,53.25
2022-11-05T19:17:37.813Z,53.23
2022-11-05T19:20:07.363Z,53.08
2022-11-05T19:22:35.335Z,53.12
2022-11-05T19:25:03.365Z,53.20
2022-11-05T19:27:31.305Z,53.37
2022-11-05T19:30:00.591Z,53.10
2022-11-05T19:32:28.544Z,53.19
2022-11-05T19:34:56.515Z,53.14
2022-11-05T19:37:24.426Z,53.08
2022-11-05T19:39:52.415Z,53.41
2022-11-05T19:42:20.363Z,53.10
2022-11-05T19:44:48.247Z,53.26
2022-11-05T19:47:17.661Z,53.21
2022-11-05T19:49:45.571Z,53.10
2022-11-05T19:52:13.559Z,53.34
2022-11-05T19:54:41.717Z,53.23
2022-11-05T19:57:09.627Z,53.36
2022-11-05T19:59:37.587Z,53.33
2022-11-05T20:02:11.941Z,53.09
2022-11-05T20:04:45.341Z,53.04
2022-11-05T20:07:13.240Z,53.23
2022-11-05T20:09:41.405Z,53.11
2022-11-05T20:12:09.380Z,53.15
2022-11-05T20:14:37.345Z,53.31
2022-11-05T20:17:05.383Z,53.19
2022-11-05T20:19:33.697Z,53.12
2022-11-05T20:22:03.208Z,53.19
2022-11-05T20:24:31.567Z,53.38
2022-11-05T20:26:59.604Z,53.36
2022-11-05T20:29:33.815Z,53.13
2022-11-05T20:32:03.822Z,53.40
2022-11-05T20:34:32.885Z,53.12
2022-11-05T20:37:02.670Z,53.12
2022-11-05T20:39:30.729Z,53.09
2022-11-05T20:42:00.616Z,53.13
2022-11-05T20:44:28.919Z,53.06
2022-11-05T20:46:56.939Z,53.29
2022-11-05T20:49:25.821Z,53.25
2022-11-05T20:51:54.203Z,53.21
2022-11-05T20:54:23.805Z,53.04
2022-11-05T20:56:51.723Z,53.17
2022-11-05T20:59:19.864Z,53.31
2022-11-05T21:01:48.120Z,53.25
2022-11-05T21:04:16.213Z,53.06
2022-11-05T21:06:44.712Z,53.08
2022-11-05T21:09:14.138Z,53.26
2022-11-05T21:12:01.987Z,53.27
2022-11-05T21:14:29.988Z,53.07
2022-11-05T21:16:57.970Z,53.13
2022-11-05T21:19:26.928Z,53.07
2022-11-05T21:21:54.871Z,53.19
2022-11-05T21:24:22.852Z,53.13
2022-11-05T21:26:54.510Z,52.99
2022-11-05T21:29:22.488Z,52.89
2022-11-05T21:31:50.463Z,53.16
2022-11-05T21:34:20.343Z,53.00
2022-11-05T21:36:48.367Z,53.08
2022-11-05T21:39:16.345Z,53.25
2022-11-05T21:41:44.386Z,53.03
2022-11-05T21:44:13.738Z,52.97
2022-11-05T21:46:41.661Z,53.04
2022-11-05T21:49:09.583Z,52.87
2022-11-05T21:51:54.930Z,52.96
2022-11-05T21:54:40.179Z,53.06
2022-11-05T21:57:31.768Z,52.95
2022-11-05T22:00:01.827Z,52.85
2022-11-05T22:02:30.706Z,53.12
2022-11-05T22:05:00.187Z,52.92
2022-11-05T22:07:30.706Z,52.98
2022-11-05T22:09:58.839Z,52.95
2022-11-05T22:12:27.552Z,52.92
2022-11-05T22:14:56.068Z,52.74
2022-11-05T22:17:26.388Z,52.79
2022-11-05T22:19:54.311Z,53.01
2022-11-05T22:22:22.551Z,52.92
2022-11-05T22:24:50.752Z,52.96
2022-11-05T22:27:21.997Z,52.93
2022-11-05T22:29:50.345Z,52.78
2022-11-05T22:32:18.728Z,52.86
2022-11-05T22:34:49.107Z,52.80
2022-11-05T22:37:17.084Z,53.04
2022-11-05T22:39:46.365Z,53.16
2022-11-05T22:42:14.679Z,52.94
2022-11-05T22:44:44.233Z,53.05
2022-11-05T22:47:15.087Z,52.92
2022-11-05T22:49:43.035Z,52.81
2022-11-05T22:52:12.413Z,52.71
2022-11-05T22:54:40.399Z,52.94
2022-11-05T22:57:08.671Z,52.97
2022-11-05T22:59:36.695Z,53.05
2022-11-05T23:02:09.517Z,52.86
2022-11-05T23:04:38.663Z,52.97
2022-11-05T23:07:27.706Z,53.01
2022-11-05T23:10:15.012Z,52.66
2022-11-05T23:12:44.704Z,53.05
2022-11-05T23:15:33.443Z,52.84
2022-11-05T23:18:18.802Z,52.91
2022-11-05T23:21:04.198Z,53.05
2022-11-05T23:23:51.854Z,52.87
2022-11-05T23:26:38.518Z,53.06
2022-11-05T23:29:06.594Z,53.08
2022-11-05T23:31:53.516Z,53.07
2022-11-05T23:34:21.439Z,52.91
2022-11-05T23:37:06.662Z,53.17
2022-11-05T23:39:39.648Z,53.04
2022-11-05T23:42:29.573Z,52.82
2022-11-05T23:45:15.106Z,52.85
2022-11-05T23:48:01.137Z,53.01
2022-11-05T23:50:29.165Z,52.87
2022-11-05T23:52:57.102Z,52.62
2022-11-05T23:55:25.860Z,52.77
2022-11-05T23:57:55.193Z,52.69
